sensor_id;sensor_type;location;lat;lon;timestamp;pressure;altitude;pressure_sealevel;temperature;humidity
7760;BME280;3924;48.830;9.262;2023-04-30T00:01:26;98888.56;;;12.53;76.12
7760;BME280;3924;48.830;9.262;2023-04-30T00:03:52;98888.38;;;12.49;76.58
7760;BME280;3924;48.830;9.262;2023-04-30T00:06:19;98897.31;;;12.50;76.63
7760;BME280;3924;48.830;9.262;2023-04-30T00:08:45;98903.25;;;12.52;76.46
7760;BME280;3924;48.830;9.262;2023-04-30T00:11:12;98903.25;;;12.52;75.96
7760;BME280;3924;48.830;9.262;2023-04-30T00:13:38;98910.81;;;12.55;76.20
7760;BME280;3924;48.830;9.262;2023-04-30T00:16:05;98902.16;;;12.53;76.74
7760;BME280;3924;48.830;9.262;2023-04-30T00:18:31;98901.66;;;12.51;76.16
7760;BME280;3924;48.830;9.262;2023-04-30T00:20:58;98900.31;;;12.48;76.57
7760;BME280;3924;48.830;9.262;2023-04-30T00:23:24;98897.91;;;12.47;76.66
7760;BME280;3924;48.830;9.262;2023-04-30T00:25:51;98907.97;;;12.46;76.06
7760;BME280;3924;48.830;9.262;2023-04-30T00:28:17;98895.47;;;12.45;75.70
7760;BME280;3924;48.830;9.262;2023-04-30T00:30:44;98903.13;;;12.43;76.11
7760;BME280;3924;48.830;9.262;2023-04-30T00:33:11;98899.09;;;12.41;76.36
7760;BME280;3924;48.830;9.262;2023-04-30T00:35:37;98900.69;;;12.42;76.67
7760;BME280;3924;48.830;9.262;2023-04-30T00:38:04;98902.91;;;12.40;76.41
7760;BME280;3924;48.830;9.262;2023-04-30T00:40:33;98901.06;;;12.35;76.09
7760;BME280;3924;48.830;9.262;2023-04-30T00:43:00;98903.59;;;12.31;76.80
7760;BME280;3924;48.830;9.262;2023-04-30T00:45:26;98904.69;;;12.30;76.82
7760;BME280;3924;48.830;9.262;2023-04-30T00:47:53;98903.28;;;12.33;76.15
7760;BME280;3924;48.830;9.262;2023-04-30T00:50:20;98904.09;;;12.33;76.20
7760;BME280;3924;48.830;9.262;2023-04-30T00:52:47;98909.81;;;12.32;76.57
7760;BME280;3924;48.830;9.262;2023-04-30T00:55:14;98908.53;;;12.29;76.46
7760;BME280;3924;48.830;9.262;2023-04-30T00:57:40;98908.53;;;12.29;76.75
7760;BME280;3924;48.830;9.262;2023-04-30T01:00:08;98911.25;;;12.29;75.68
7760;BME280;3924;48.830;9.262;2023-04-30T01:02:36;98914.03;;;12.24;76.76
7760;BME280;3924;48.830;9.262;2023-04-30T01:05:03;98913.53;;;12.22;76.65
7760;BME280;3924;48.830;9.262;2023-04-30T01:07:30;98906.69;;;12.25;76.61
7760;BME280;3924;48.830;9.262;2023-04-30T01:09:57;98911.00;;;12.26;76.33
7760;BME280;3924;48.830;9.262;2023-04-30T01:13:16;98908.53;;;12.29;76.65
7760;BME280;3924;48.830;9.262;2023-04-30T01:15:55;98913.94;;;12.29;76.19
7760;BME280;3924;48.830;9.262;2023-04-30T01:18:31;98910.69;;;12.27;76.80
7760;BME280;3924;48.830;9.262;2023-04-30T01:21:03;98910.19;;;12.25;76.36
7760;BME280;3924;48.830;9.262;2023-04-30T01:23:54;98909.16;;;12.21;77.00
7760;BME280;3924;48.830;9.262;2023-04-30T01:29:21;98905.44;;;12.17;76.70
7760;BME280;3924;48.830;9.262;2023-04-30T01:31:47;98904.31;;;12.18;76.41
7760;BME280;3924;48.830;9.262;2023-04-30T01:34:14;98907.84;;;12.19;76.67
7760;BME280;3924;48.830;9.262;2023-04-30T01:42:19;98898.94;;;12.13;76.19
7760;BME280;3924;48.830;9.262;2023-04-30T01:52:49;98895.72;;;12.11;75.96
7760;BME280;3924;48.830;9.262;2023-04-30T01:55:33;98888.69;;;12.10;76.17
7760;BME280;3924;48.830;9.262;2023-04-30T01:58:06;98891.97;;;12.07;76.72
7760;BME280;3924;48.830;9.262;2023-04-30T02:00:35;98897.41;;;12.07;76.63
7760;BME280;3924;48.830;9.262;2023-04-30T02:03:02;98901.31;;;12.01;76.89
7760;BME280;3924;48.830;9.262;2023-04-30T02:05:28;98899.47;;;11.96;76.45
7760;BME280;3924;48.830;9.262;2023-04-30T02:07:55;98907.34;;;11.98;76.85
7760;BME280;3924;48.830;9.262;2023-04-30T02:10:23;98904.63;;;11.98;77.08
7760;BME280;3924;48.830;9.262;2023-04-30T02:12:51;98904.09;;;11.96;77.08
7760;BME280;3924;48.830;9.262;2023-04-30T02:15:18;98898.66;;;11.96;77.08
7760;BME280;3924;48.830;9.262;2023-04-30T02:17:45;98897.63;;;11.92;76.53
7760;BME280;3924;48.830;9.262;2023-04-30T02:20:11;98894.41;;;11.90;76.57
7760;BME280;3924;48.830;9.262;2023-04-30T02:22:38;98891.69;;;11.90;76.90
7760;BME280;3924;48.830;9.262;2023-04-30T02:25:05;98890.59;;;11.91;77.18
7760;BME280;3924;48.830;9.262;2023-04-30T02:27:32;98891.19;;;11.88;77.22
7760;BME280;3924;48.830;9.262;2023-04-30T02:29:59;98884.09;;;11.87;76.80
7760;BME280;3924;48.830;9.262;2023-04-30T02:32:27;98886.91;;;11.82;76.76
7760;BME280;3924;48.830;9.262;2023-04-30T02:34:53;98888.25;;;11.79;76.85
7760;BME280;3924;48.830;9.262;2023-04-30T02:37:20;98888.03;;;11.75;76.91
7760;BME280;3924;48.830;9.262;2023-04-30T02:39:47;98883.13;;;11.77;76.63
7760;BME280;3924;48.830;9.262;2023-04-30T02:42:13;98882.63;;;11.75;77.08
7760;BME280;3924;48.830;9.262;2023-04-30T02:44:40;98877.25;;;11.70;77.09
7760;BME280;3924;48.830;9.262;2023-04-30T02:47:07;98885.75;;;11.64;77.04
7760;BME280;3924;48.830;9.262;2023-04-30T02:49:33;98887.72;;;11.58;77.38
7760;BME280;3924;48.830;9.262;2023-04-30T02:51:59;98885.81;;;11.59;77.78
7760;BME280;3924;48.830;9.262;2023-04-30T02:54:26;98881.97;;;11.60;76.98
7760;BME280;3924;48.830;9.262;2023-04-30T02:56:53;98876.84;;;11.58;77.22
7760;BME280;3924;48.830;9.262;2023-04-30T02:59:19;98887.66;;;11.63;77.00
7760;BME280;3924;48.830;9.262;2023-04-30T03:01:46;98882.81;;;11.60;77.17
7760;BME280;3924;48.830;9.262;2023-04-30T03:04:12;98879.88;;;11.57;77.52
7760;BME280;3924;48.830;9.262;2023-04-30T03:06:39;98879.66;;;11.53;77.58
7760;BME280;3924;48.830;9.262;2023-04-30T03:09:06;98886.16;;;11.52;77.20
7760;BME280;3924;48.830;9.262;2023-04-30T03:11:32;98881.03;;;11.50;77.35
7760;BME280;3924;48.830;9.262;2023-04-30T03:14:03;98889.16;;;11.50;77.24
7760;BME280;3924;48.830;9.262;2023-04-30T03:16:30;98890.28;;;11.49;77.50
7760;BME280;3924;48.830;9.262;2023-04-30T03:18:56;98893.22;;;11.53;77.52
7760;BME280;3924;48.830;9.262;2023-04-30T03:21:23;98886.97;;;11.52;77.82
7760;BME280;3924;48.830;9.262;2023-04-30T03:23:50;98883.44;;;11.52;77.56
7760;BME280;3924;48.830;9.262;2023-04-30T03:26:16;98879.13;;;11.51;77.43
7760;BME280;3924;48.830;9.262;2023-04-30T03:28:43;98883.53;;;11.47;77.07
7760;BME280;3924;48.830;9.262;2023-04-30T03:31:10;98890.03;;;11.46;77.58
7760;BME280;3924;48.830;9.262;2023-04-30T03:33:36;98885.19;;;11.43;77.71
7760;BME280;3924;48.830;9.262;2023-04-30T03:36:03;98890.91;;;11.41;77.89
7760;BME280;3924;48.830;9.262;2023-04-30T03:38:29;98877.69;;;11.35;77.88
7760;BME280;3924;48.830;9.262;2023-04-30T03:40:56;98881.22;;;11.35;78.22
7760;BME280;3924;48.830;9.262;2023-04-30T03:43:22;98877.19;;;11.33;78.01
7760;BME280;3924;48.830;9.262;2023-04-30T03:45:49;98889.13;;;11.32;78.12
7760;BME280;3924;48.830;9.262;2023-04-30T03:48:15;98883.69;;;11.32;77.95
7760;BME280;3924;48.830;9.262;2023-04-30T03:50:42;98893.53;;;11.28;78.23
7760;BME280;3924;48.830;9.262;2023-04-30T03:53:09;98888.09;;;11.28;78.40
7760;BME280;3924;48.830;9.262;2023-04-30T03:55:36;98885.88;;;11.30;77.83
7760;BME280;3924;48.830;9.262;2023-04-30T04:05:25;98886.94;;;11.34;78.18
7760;BME280;3924;48.830;9.262;2023-04-30T04:08:44;98879.31;;;11.36;77.69
7760;BME280;3924;48.830;9.262;2023-04-30T04:16:56;98888.56;;;11.35;78.64
7760;BME280;3924;48.830;9.262;2023-04-30T04:20:01;98897.19;;;11.37;78.53
7760;BME280;3924;48.830;9.262;2023-04-30T04:23:15;98901.53;;;11.38;78.39
7760;BME280;3924;48.830;9.262;2023-04-30T04:26:55;98900.97;;;11.41;78.59
7760;BME280;3924;48.830;9.262;2023-04-30T04:30:09;98902.00;;;11.45;78.21
7760;BME280;3924;48.830;9.262;2023-04-30T04:33:44;98904.34;;;11.51;78.01
7760;BME280;3924;48.830;9.262;2023-04-30T04:36:55;98911.41;;;11.52;77.95
7760;BME280;3924;48.830;9.262;2023-04-30T04:39:59;98908.97;;;11.51;78.28
7760;BME280;3924;48.830;9.262;2023-04-30T04:43:06;98909.78;;;11.51;78.35
7760;BME280;3924;48.830;9.262;2023-04-30T04:46:00;98913.84;;;11.54;77.81
7760;BME280;3924;48.830;9.262;2023-04-30T04:48:59;98918.19;;;11.55;78.04
7760;BME280;3924;48.830;9.262;2023-04-30T04:55:22;98913.84;;;11.54;78.52
7760;BME280;3924;48.830;9.262;2023-04-30T04:57:53;98911.13;;;11.54;77.69
7760;BME280;3924;48.830;9.262;2023-04-30T05:00:19;98910.59;;;11.52;77.86
7760;BME280;3924;48.830;9.262;2023-04-30T05:02:48;98904.66;;;11.50;77.59
7760;BME280;3924;48.830;9.262;2023-04-30T05:05:15;98905.75;;;11.49;78.35
7760;BME280;3924;48.830;9.262;2023-04-30T05:07:41;98907.97;;;11.47;78.15
7760;BME280;3924;48.830;9.262;2023-04-30T05:10:08;98906.56;;;11.49;78.11
7760;BME280;3924;48.830;9.262;2023-04-30T05:12:34;98908.97;;;11.51;77.83
7760;BME280;3924;48.830;9.262;2023-04-30T05:15:01;98914.31;;;11.61;77.80
7760;BME280;3924;48.830;9.262;2023-04-30T05:17:27;98914.75;;;11.68;77.22
7760;BME280;3924;48.830;9.262;2023-04-30T05:19:54;98910.34;;;11.72;77.51
7760;BME280;3924;48.830;9.262;2023-04-30T05:22:21;98916.22;;;11.79;77.39
7760;BME280;3924;48.830;9.262;2023-04-30T05:24:48;98910.78;;;11.79;77.45
7760;BME280;3924;48.830;9.262;2023-04-30T05:27:14;98912.91;;;11.88;76.76
7760;BME280;3924;48.830;9.262;2023-04-30T05:29:41;98920.41;;;11.96;77.40
7760;BME280;3924;48.830;9.262;2023-04-30T05:32:08;98923.63;;;11.98;76.67
7760;BME280;3924;48.830;9.262;2023-04-30T05:34:35;98929.31;;;12.01;76.76
7760;BME280;3924;48.830;9.262;2023-04-30T05:37:01;98919.81;;;11.99;77.03
7760;BME280;3924;48.830;9.262;2023-04-30T05:39:28;98922.16;;;12.05;76.73
7760;BME280;3924;48.830;9.262;2023-04-30T05:41:55;98925.94;;;12.10;76.41
7760;BME280;3924;48.830;9.262;2023-04-30T05:44:22;98925.31;;;12.13;76.62
7760;BME280;3924;48.830;9.262;2023-04-30T05:46:48;98920.13;;;12.16;76.60
7760;BME280;3924;48.830;9.262;2023-04-30T05:49:15;98922.84;;;12.16;76.55
7760;BME280;3924;48.830;9.262;2023-04-30T05:51:41;98929.59;;;12.19;76.77
7760;BME280;3924;48.830;9.262;2023-04-30T05:54:08;98916.59;;;12.16;76.56
7760;BME280;3924;48.830;9.262;2023-04-30T05:56:34;98918.22;;;12.17;76.45
7760;BME280;3924;48.830;9.262;2023-04-30T05:59:14;98918.50;;;12.15;76.80
7760;BME280;3924;48.830;9.262;2023-04-30T06:02:31;98914.09;;;12.19;76.11
7760;BME280;3924;48.830;9.262;2023-04-30T06:05:48;98923.28;;;12.23;75.54
7760;BME280;3924;48.830;9.262;2023-04-30T06:09:25;98920.41;;;12.33;76.19
7760;BME280;3924;48.830;9.262;2023-04-30T06:20:55;98931.59;;;12.83;75.26
7760;BME280;3924;48.830;9.262;2023-04-30T06:24:00;98929.56;;;12.89;74.74
7760;BME280;3924;48.830;9.262;2023-04-30T06:27:11;98930.13;;;13.05;74.96
7760;BME280;3924;48.830;9.262;2023-04-30T06:30:54;98924.00;;;13.13;74.64
7760;BME280;3924;48.830;9.262;2023-04-30T06:34:44;98927.81;;;13.12;74.77
7760;BME280;3924;48.830;9.262;2023-04-30T06:45:31;98932.72;;;13.29;74.02
7760;BME280;3924;48.830;9.262;2023-04-30T06:52:28;98930.81;;;13.57;73.21
7760;BME280;3924;48.830;9.262;2023-04-30T07:02:30;98930.41;;;13.77;72.79
7760;BME280;3924;48.830;9.262;2023-04-30T07:19:22;98912.38;;;14.76;70.34
7760;BME280;3924;48.830;9.262;2023-04-30T07:22:26;98922.66;;;14.79;70.37
7760;BME280;3924;48.830;9.262;2023-04-30T07:29:37;98916.50;;;15.58;68.59
7760;BME280;3924;48.830;9.262;2023-04-30T07:32:38;98918.91;;;15.59;67.95
7760;BME280;3924;48.830;9.262;2023-04-30T07:40:15;98905.38;;;15.54;68.25
7760;BME280;3924;48.830;9.262;2023-04-30T07:47:02;98902.59;;;15.94;67.14
7760;BME280;3924;48.830;9.262;2023-04-30T07:50:07;98896.63;;;15.83;67.49
7760;BME280;3924;48.830;9.262;2023-04-30T07:54:02;98900.94;;;15.67;67.21
7760;BME280;3924;48.830;9.262;2023-04-30T07:57:12;98892.59;;;15.81;66.81
7760;BME280;3924;48.830;9.262;2023-04-30T08:00:05;98897.13;;;15.94;66.38
7760;BME280;3924;48.830;9.262;2023-04-30T08:03:24;98894.75;;;16.19;66.26
7760;BME280;3924;48.830;9.262;2023-04-30T08:06:47;98893.63;;;16.46;66.13
7760;BME280;3924;48.830;9.262;2023-04-30T08:13:54;98888.16;;;16.37;65.54
7760;BME280;3924;48.830;9.262;2023-04-30T08:23:53;98888.63;;;16.04;65.85
7760;BME280;3924;48.830;9.262;2023-04-30T08:26:47;98893.28;;;15.95;64.87
7760;BME280;3924;48.830;9.262;2023-04-30T08:29:47;98890.22;;;15.97;65.51
7760;BME280;3924;48.830;9.262;2023-04-30T08:32:48;98890.34;;;15.83;65.49
7760;BME280;3924;48.830;9.262;2023-04-30T08:35:22;98890.03;;;15.76;65.50
7760;BME280;3924;48.830;9.262;2023-04-30T08:37:49;98891.47;;;15.73;65.37
7760;BME280;3924;48.830;9.262;2023-04-30T08:40:15;98884.53;;;15.67;64.75
7760;BME280;3924;48.830;9.262;2023-04-30T08:42:45;98884.41;;;15.72;64.89
7760;BME280;3924;48.830;9.262;2023-04-30T08:45:15;98891.16;;;15.75;64.17
7760;BME280;3924;48.830;9.262;2023-04-30T08:47:42;98899.00;;;15.68;64.33
7760;BME280;3924;48.830;9.262;2023-04-30T08:50:09;98897.34;;;15.58;64.51
7760;BME280;3924;48.830;9.262;2023-04-30T08:52:37;98895.84;;;15.43;64.78
7760;BME280;3924;48.830;9.262;2023-04-30T08:55:06;98897.25;;;15.32;64.58
7760;BME280;3924;48.830;9.262;2023-04-30T08:57:36;98897.19;;;15.23;64.15
7760;BME280;3924;48.830;9.262;2023-04-30T09:00:04;98901.56;;;15.24;63.81
7760;BME280;3924;48.830;9.262;2023-04-30T09:02:33;98895.81;;;15.35;63.87
7760;BME280;3924;48.830;9.262;2023-04-30T09:05:00;98899.56;;;15.47;62.73
7760;BME280;3924;48.830;9.262;2023-04-30T09:07:29;98900.94;;;15.67;62.58
7760;BME280;3924;48.830;9.262;2023-04-30T09:09:58;98886.06;;;15.99;61.52
7760;BME280;3924;48.830;9.262;2023-04-30T09:12:26;98898.59;;;16.26;60.63
7760;BME280;3924;48.830;9.262;2023-04-30T09:15:05;98887.50;;;16.40;60.61
7760;BME280;3924;48.830;9.262;2023-04-30T09:17:34;98890.38;;;16.52;60.14
7760;BME280;3924;48.830;9.262;2023-04-30T09:20:09;98893.63;;;16.72;60.09
7760;BME280;3924;48.830;9.262;2023-04-30T09:22:37;98882.66;;;16.72;59.98
7760;BME280;3924;48.830;9.262;2023-04-30T09:25:04;98887.81;;;16.64;59.35
7760;BME280;3924;48.830;9.262;2023-04-30T09:27:31;98886.84;;;16.60;59.93
7760;BME280;3924;48.830;9.262;2023-04-30T09:29:58;98888.94;;;16.63;59.41
7760;BME280;3924;48.830;9.262;2023-04-30T09:32:24;98888.78;;;16.60;58.73
7760;BME280;3924;48.830;9.262;2023-04-30T09:34:51;98884.44;;;16.59;59.11
7760;BME280;3924;48.830;9.262;2023-04-30T09:37:17;98884.91;;;16.52;59.32
7760;BME280;3924;48.830;9.262;2023-04-30T09:39:52;98884.47;;;16.41;58.36
7760;BME280;3924;48.830;9.262;2023-04-30T09:42:19;98887.16;;;16.33;58.39
7760;BME280;3924;48.830;9.262;2023-04-30T09:44:47;98882.84;;;16.40;58.46
7760;BME280;3924;48.830;9.262;2023-04-30T09:47:15;98889.28;;;16.71;57.70
7760;BME280;3924;48.830;9.262;2023-04-30T09:49:51;98883.72;;;17.05;57.60
7760;BME280;3924;48.830;9.262;2023-04-30T09:52:19;98887.13;;;17.02;56.48
7760;BME280;3924;48.830;9.262;2023-04-30T09:54:46;98880.38;;;16.91;57.49
7760;BME280;3924;48.830;9.262;2023-04-30T09:57:15;98879.91;;;16.80;56.92
7760;BME280;3924;48.830;9.262;2023-04-30T09:59:45;98883.63;;;16.76;56.75
7760;BME280;3924;48.830;9.262;2023-04-30T10:02:14;98887.97;;;16.77;57.03
7760;BME280;3924;48.830;9.262;2023-04-30T10:04:42;98878.59;;;16.86;56.47
7760;BME280;3924;48.830;9.262;2023-04-30T10:07:18;98878.91;;;16.93;56.25
7760;BME280;3924;48.830;9.262;2023-04-30T10:10:07;98873.13;;;16.95;56.67
7760;BME280;3924;48.830;9.262;2023-04-30T10:12:50;98871.50;;;16.94;56.20
7760;BME280;3924;48.830;9.262;2023-04-30T10:15:30;98879.72;;;16.94;55.69
7760;BME280;3924;48.830;9.262;2023-04-30T10:18:19;98880.97;;;17.05;55.08
7760;BME280;3924;48.830;9.262;2023-04-30T10:20:48;98876.97;;;17.41;54.79
7760;BME280;3924;48.830;9.262;2023-04-30T10:23:16;98877.94;;;17.45;54.80
7760;BME280;3924;48.830;9.262;2023-04-30T10:25:43;98872.97;;;17.38;54.53
7760;BME280;3924;48.830;9.262;2023-04-30T10:28:10;98875.75;;;17.30;54.14
7760;BME280;3924;48.830;9.262;2023-04-30T10:30:36;98876.84;;;17.29;54.82
7760;BME280;3924;48.830;9.262;2023-04-30T10:33:22;98881.44;;;17.16;54.31
7760;BME280;3924;48.830;9.262;2023-04-30T10:35:57;98875.53;;;16.97;54.76
7760;BME280;3924;48.830;9.262;2023-04-30T10:38:26;98878.59;;;16.95;53.92
7760;BME280;3924;48.830;9.262;2023-04-30T10:40:56;98877.94;;;16.98;54.95
7760;BME280;3924;48.830;9.262;2023-04-30T10:43:24;98875.34;;;17.02;54.05
7760;BME280;3924;48.830;9.262;2023-04-30T10:45:51;98869.06;;;17.01;53.77
7760;BME280;3924;48.830;9.262;2023-04-30T10:48:21;98870.81;;;17.06;54.28
7760;BME280;3924;48.830;9.262;2023-04-30T10:50:55;98867.78;;;16.99;54.55
7760;BME280;3924;48.830;9.262;2023-04-30T10:53:22;98875.19;;;16.98;53.43
7760;BME280;3924;48.830;9.262;2023-04-30T10:56:03;98865.38;;;16.97;54.09
7760;BME280;3924;48.830;9.262;2023-04-30T10:58:36;98866.31;;;17.01;53.57
7760;BME280;3924;48.830;9.262;2023-04-30T11:01:14;98859.53;;;17.07;53.52
7760;BME280;3924;48.830;9.262;2023-04-30T11:04:06;98860.78;;;17.18;53.54
7760;BME280;3924;48.830;9.262;2023-04-30T11:09:18;98849.28;;;17.34;51.93
7760;BME280;3924;48.830;9.262;2023-04-30T11:11:45;98859.72;;;17.40;52.87
7760;BME280;3924;48.830;9.262;2023-04-30T11:14:19;98848.53;;;17.54;52.61
7760;BME280;3924;48.830;9.262;2023-04-30T11:16:49;98852.69;;;17.60;51.57
7760;BME280;3924;48.830;9.262;2023-04-30T11:19:21;98843.84;;;17.55;52.75
7760;BME280;3924;48.830;9.262;2023-04-30T11:27:28;98848.34;;;17.21;51.93
7760;BME280;3924;48.830;9.262;2023-04-30T11:29:56;98848.84;;;17.23;52.87
7760;BME280;3924;48.830;9.262;2023-04-30T11:32:25;98853.00;;;17.29;52.44
7760;BME280;3924;48.830;9.262;2023-04-30T11:34:53;98841.81;;;17.43;52.70
7760;BME280;3924;48.830;9.262;2023-04-30T11:37:41;98833.88;;;17.50;52.40
7760;BME280;3924;48.830;9.262;2023-04-30T11:40:10;98823.38;;;17.52;51.52
7760;BME280;3924;48.830;9.262;2023-04-30T11:42:39;98827.81;;;17.65;51.12
7760;BME280;3924;48.830;9.262;2023-04-30T11:45:11;98833.63;;;17.72;51.55
7760;BME280;3924;48.830;9.262;2023-04-30T11:50:13;98830.53;;;17.95;51.39
7760;BME280;3924;48.830;9.262;2023-04-30T11:52:41;98828.66;;;17.87;50.25
7760;BME280;3924;48.830;9.262;2023-04-30T11:55:13;98825.66;;;17.80;51.01
7760;BME280;3924;48.830;9.262;2023-04-30T11:57:46;98816.03;;;17.73;51.59
7760;BME280;3924;48.830;9.262;2023-04-30T12:00:18;98812.69;;;17.59;51.21
7760;BME280;3924;48.830;9.262;2023-04-30T12:02:47;98808.53;;;17.53;51.53
7760;BME280;3924;48.830;9.262;2023-04-30T12:05:19;98808.88;;;17.52;51.19
7760;BME280;3924;48.830;9.262;2023-04-30T12:08:03;98804.56;;;17.42;51.12
7760;BME280;3924;48.830;9.262;2023-04-30T12:10:33;98812.47;;;17.43;50.75
7760;BME280;3924;48.830;9.262;2023-04-30T12:12:59;98798.63;;;17.40;51.08
7760;BME280;3924;48.830;9.262;2023-04-30T12:15:26;98799.13;;;17.33;51.18
7760;BME280;3924;48.830;9.262;2023-04-30T12:17:55;98805.69;;;17.41;51.82
7760;BME280;3924;48.830;9.262;2023-04-30T12:20:25;98800.03;;;17.46;51.19
7760;BME280;3924;48.830;9.262;2023-04-30T12:22:56;98803.13;;;17.44;52.04
7760;BME280;3924;48.830;9.262;2023-04-30T12:25:24;98803.44;;;17.43;51.60
7760;BME280;3924;48.830;9.262;2023-04-30T12:27:54;98798.91;;;17.47;50.77
7760;BME280;3924;48.830;9.262;2023-04-30T12:30:23;98805.06;;;17.44;50.81
7760;BME280;3924;48.830;9.262;2023-04-30T12:32:53;98802.16;;;17.40;51.21
7760;BME280;3924;48.830;9.262;2023-04-30T12:35:22;98795.53;;;17.41;51.24
7760;BME280;3924;48.830;9.262;2023-04-30T12:38:01;98802.78;;;17.46;50.68
7760;BME280;3924;48.830;9.262;2023-04-30T12:40:27;98801.19;;;17.45;51.22
7760;BME280;3924;48.830;9.262;2023-04-30T12:43:05;98803.25;;;17.48;50.80
7760;BME280;3924;48.830;9.262;2023-04-30T12:45:52;98805.34;;;17.51;51.42
7760;BME280;3924;48.830;9.262;2023-04-30T12:48:24;98798.91;;;17.47;51.16
7760;BME280;3924;48.830;9.262;2023-04-30T12:51:00;98792.78;;;17.50;51.05
7760;BME280;3924;48.830;9.262;2023-04-30T12:53:28;98792.09;;;17.53;50.19
7760;BME280;3924;48.830;9.262;2023-04-30T12:56:13;98797.56;;;17.53;50.14
7760;BME280;3924;48.830;9.262;2023-04-30T12:58:43;98796.84;;;17.44;50.80
7760;BME280;3924;48.830;9.262;2023-04-30T13:01:17;98792.34;;;17.39;50.88
7760;BME280;3924;48.830;9.262;2023-04-30T13:03:44;98787.84;;;17.35;51.19
7760;BME280;3924;48.830;9.262;2023-04-30T13:06:11;98784.19;;;17.31;51.25
7760;BME280;3924;48.830;9.262;2023-04-30T13:08:37;98785.31;;;17.30;51.87
7760;BME280;3924;48.830;9.262;2023-04-30T13:11:22;98775.75;;;17.36;50.64
7760;BME280;3924;48.830;9.262;2023-04-30T13:13:49;98770.22;;;17.44;51.28
7760;BME280;3924;48.830;9.262;2023-04-30T13:16:15;98772.91;;;17.53;50.46
7760;BME280;3924;48.830;9.262;2023-04-30T13:18:42;98771.75;;;17.54;51.23
7760;BME280;3924;48.830;9.262;2023-04-30T13:21:09;98772.38;;;17.60;49.80
7760;BME280;3924;48.830;9.262;2023-04-30T13:23:36;98759.31;;;17.86;50.48
7760;BME280;3924;48.830;9.262;2023-04-30T13:26:17;98759.22;;;17.95;50.12
7760;BME280;3924;48.830;9.262;2023-04-30T13:28:44;98751.66;;;17.92;49.94
7760;BME280;3924;48.830;9.262;2023-04-30T13:31:10;98766.84;;;17.89;49.21
7760;BME280;3924;48.830;9.262;2023-04-30T13:33:37;98760.19;;;17.78;49.65
7760;BME280;3924;48.830;9.262;2023-04-30T13:36:04;98748.75;;;17.67;50.41
7760;BME280;3924;48.830;9.262;2023-04-30T13:38:30;98750.56;;;17.63;49.67
7760;BME280;3924;48.830;9.262;2023-04-30T13:40:57;98746.69;;;17.64;50.49
7760;BME280;3924;48.830;9.262;2023-04-30T13:43:23;98742.50;;;17.88;49.25
7760;BME280;3924;48.830;9.262;2023-04-30T13:45:50;98737.78;;;18.09;49.36
7760;BME280;3924;48.830;9.262;2023-04-30T13:48:17;98741.94;;;18.61;48.07
7760;BME280;3924;48.830;9.262;2023-04-30T13:50:43;98739.81;;;19.15;47.88
7760;BME280;3924;48.830;9.262;2023-04-30T13:53:10;98742.38;;;19.48;47.24
7760;BME280;3924;48.830;9.262;2023-04-30T13:55:36;98743.00;;;19.29;46.58
7760;BME280;3924;48.830;9.262;2023-04-30T13:58:03;98733.16;;;19.16;47.14
7760;BME280;3924;48.830;9.262;2023-04-30T14:00:29;98736.94;;;19.36;46.58
7760;BME280;3924;48.830;9.262;2023-04-30T14:02:56;98731.28;;;19.45;47.12
7760;BME280;3924;48.830;9.262;2023-04-30T14:05:22;98731.94;;;19.54;46.49
7760;BME280;3924;48.830;9.262;2023-04-30T14:07:49;98738.28;;;19.94;46.07
7760;BME280;3924;48.830;9.262;2023-04-30T14:10:18;98741.91;;;20.11;45.77
7760;BME280;3924;48.830;9.262;2023-04-30T14:12:45;98732.16;;;20.29;44.71
7760;BME280;3924;48.830;9.262;2023-04-30T14:15:12;98731.34;;;20.29;44.99
7760;BME280;3924;48.830;9.262;2023-04-30T14:17:38;98731.88;;;19.90;45.43
7760;BME280;3924;48.830;9.262;2023-04-30T14:20:07;98732.91;;;19.58;46.62
7760;BME280;3924;48.830;9.262;2023-04-30T14:22:37;98732.91;;;19.21;46.76
7760;BME280;3924;48.830;9.262;2023-04-30T14:25:04;98724.91;;;18.92;47.37
7760;BME280;3924;48.830;9.262;2023-04-30T14:27:32;98728.13;;;18.69;48.15
7760;BME280;3924;48.830;9.262;2023-04-30T14:29:58;98725.09;;;18.50;47.66
7760;BME280;3924;48.830;9.262;2023-04-30T14:32:25;98719.81;;;18.33;47.89
7760;BME280;3924;48.830;9.262;2023-04-30T14:34:53;98711.88;;;18.31;48.37
7760;BME280;3924;48.830;9.262;2023-04-30T14:37:19;98707.69;;;18.46;47.82
7760;BME280;3924;48.830;9.262;2023-04-30T14:39:46;98702.31;;;18.49;47.95
7760;BME280;3924;48.830;9.262;2023-04-30T14:42:12;98721.41;;;18.34;47.99
7760;BME280;3924;48.830;9.262;2023-04-30T14:44:39;98701.38;;;18.45;47.85
7760;BME280;3924;48.830;9.262;2023-04-30T14:47:05;98706.56;;;18.59;46.88
7760;BME280;3924;48.830;9.262;2023-04-30T14:49:35;98692.06;;;18.71;48.00
7760;BME280;3924;48.830;9.262;2023-04-30T14:52:05;98692.41;;;18.69;47.47
7760;BME280;3924;48.830;9.262;2023-04-30T14:54:31;98698.78;;;18.61;47.27
7760;BME280;3924;48.830;9.262;2023-04-30T14:56:58;98691.91;;;18.43;47.85
7760;BME280;3924;48.830;9.262;2023-04-30T14:59:24;98687.75;;;18.37;47.45
7760;BME280;3924;48.830;9.262;2023-04-30T15:01:51;98682.28;;;18.37;47.48
7760;BME280;3924;48.830;9.262;2023-04-30T15:04:17;98681.38;;;18.45;47.34
7760;BME280;3924;48.830;9.262;2023-04-30T15:06:44;98677.38;;;18.54;47.27
7760;BME280;3924;48.830;9.262;2023-04-30T15:09:11;98679.88;;;18.59;47.19
7760;BME280;3924;48.830;9.262;2023-04-30T15:11:38;98682.09;;;18.54;47.20
7760;BME280;3924;48.830;9.262;2023-04-30T15:14:04;98685.72;;;18.46;47.10
7760;BME280;3924;48.830;9.262;2023-04-30T15:16:30;98679.56;;;18.49;47.33
7760;BME280;3924;48.830;9.262;2023-04-30T15:18:58;98674.28;;;18.44;47.44
7760;BME280;3924;48.830;9.262;2023-04-30T15:21:24;98669.38;;;18.49;46.99
7760;BME280;3924;48.830;9.262;2023-04-30T15:23:51;98662.16;;;18.57;47.01
7760;BME280;3924;48.830;9.262;2023-04-30T15:26:18;98659.31;;;18.53;47.41
7760;BME280;3924;48.830;9.262;2023-04-30T15:28:45;98660.13;;;18.54;47.35
7760;BME280;3924;48.830;9.262;2023-04-30T15:31:11;98656.66;;;18.45;47.33
7760;BME280;3924;48.830;9.262;2023-04-30T15:33:38;98652.66;;;18.42;47.53
7760;BME280;3924;48.830;9.262;2023-04-30T15:36:08;98658.03;;;18.51;47.32
7760;BME280;3924;48.830;9.262;2023-04-30T15:38:47;98653.47;;;18.55;47.07
7760;BME280;3924;48.830;9.262;2023-04-30T15:41:13;98663.53;;;18.63;47.20
7760;BME280;3924;48.830;9.262;2023-04-30T15:43:41;98656.78;;;18.36;47.52
7760;BME280;3924;48.830;9.262;2023-04-30T15:46:07;98660.75;;;18.14;47.93
7760;BME280;3924;48.830;9.262;2023-04-30T15:48:34;98668.28;;;18.05;48.20